Terminal Aerodrome Forecast
Issued by NWS Charleston, WV

Current Version | Previous Version | Text Only | Print | Product List | Glossary Off
Versions: 1 2 3 4 5 6 7 8 9 10 11 12 13 14 15 16 17 18 19 20 21 22 23 24 25 26 27

000
FTUS41 KRLX 211700
TAFPKB
TAF
KPKB 211720Z 2118/2218 18006KT 4SM -TSRA BR SCT015 BKN025CB
     FM220100 VRB03KT 5SM -SHRA BR VCTS SCT012 BKN035CB
     FM220300 00000KT 6SM BR BKN040
     FM221000 00000KT 2SM BR BKN035
     FM221400 00000KT P6SM TSRA BKN080CB=

USA.gov is the U.S. government's official web portal to all federal, state and local government web resources and services.